createdAt,value
2018-02-08T00:01:39.970Z,57.90
2018-02-08T00:06:43.100Z,56.43
2018-02-08T00:11:46.270Z,56.60
2018-02-08T00:16:49.338Z,59.90
2018-02-08T00:21:52.435Z,58.85
2018-02-08T00:26:55.931Z,50.40
2018-02-08T00:31:59.451Z,57.30
2018-02-08T00:37:02.551Z,61.70
2018-02-08T00:42:05.688Z,46.47
2018-02-08T00:47:08.780Z,60.07
2018-02-08T00:52:11.911Z,49.77
2018-02-08T00:57:15.008Z,50.87
2018-02-08T01:02:19.475Z,56.80
2018-02-08T01:07:22.564Z,52.03
2018-02-08T01:12:25.691Z,48.03
2018-02-08T01:17:28.929Z,55.20
2018-02-08T01:22:32.043Z,50.40
2018-02-08T01:27:35.552Z,51.83
2018-02-08T01:32:39.464Z,47.33
2018-02-08T01:37:42.544Z,43.47
2018-02-08T01:42:46.402Z,51.93
2018-02-08T01:47:50.665Z,42.57
2018-02-08T01:52:54.874Z,52.50
2018-02-08T01:57:58.355Z,49.20
2018-02-08T02:03:01.504Z,46.43
2018-02-08T02:08:05.367Z,45.20
2018-02-08T02:13:08.495Z,40.47
2018-02-08T02:18:11.583Z,54.05
2018-02-08T02:23:16.492Z,46.67
2018-02-08T02:28:20.379Z,46.13
2018-02-08T02:33:23.473Z,49.33
2018-02-08T02:38:26.612Z,46.10
2018-02-08T02:43:29.711Z,46.23
2018-02-08T02:48:33.591Z,40.17
2018-02-08T02:53:36.687Z,38.27
2018-02-08T02:58:40.216Z,47.60
2018-02-08T03:03:43.308Z,42.97
2018-02-08T03:08:46.443Z,48.90
2018-02-08T03:13:49.931Z,52.80
2018-02-08T03:18:53.020Z,50.93
2018-02-08T03:23:56.547Z,46.33
2018-02-08T03:29:00.033Z,49.07
2018-02-08T03:34:04.515Z,48.43
2018-02-08T03:39:08.009Z,50.90
2018-02-08T03:44:12.490Z,45.30
2018-02-08T03:49:15.587Z,44.20
2018-02-08T03:54:18.695Z,47.40
2018-02-08T03:59:23.175Z,49.93
2018-02-08T04:04:27.775Z,44.23
2018-02-08T04:09:32.271Z,48.43
2018-02-08T04:14:36.876Z,44.03
2018-02-08T04:19:39.989Z,50.90
2018-02-08T04:24:43.120Z,39.63
2018-02-08T04:29:47.572Z,48.30
2018-02-08T04:34:52.216Z,51.00
2018-02-08T04:40:13.163Z,47.67
2018-02-08T04:45:29.279Z,43.03
2018-02-08T04:50:33.746Z,43.55
2018-02-08T04:55:36.843Z,49.07
2018-02-08T05:00:41.492Z,45.77
2018-02-08T05:05:44.598Z,49.22
2018-02-08T05:10:49.079Z,50.30
2018-02-08T05:15:52.573Z,50.37
2018-02-08T05:20:55.703Z,50.45
2018-02-08T05:25:59.568Z,50.73
2018-02-08T05:31:03.468Z,47.27
2018-02-08T05:36:06.568Z,46.92
2018-02-08T05:41:09.716Z,46.27
2018-02-08T05:46:13.575Z,49.93
2018-02-08T05:51:18.049Z,53.40
2018-02-08T05:56:22.648Z,52.07
2018-02-08T06:01:26.564Z,52.73
2018-02-08T06:06:29.656Z,48.35
2018-02-08T06:11:32.796Z,50.53
2018-02-08T06:16:36.664Z,51.87
2018-02-08T06:21:39.771Z,50.53
2018-02-08T06:26:44.014Z,49.40
2018-02-08T06:31:47.904Z,55.23
2018-02-08T06:36:52.136Z,49.40
2018-02-08T06:41:56.036Z,49.40
2018-02-08T06:47:00.652Z,48.37
2018-02-08T06:52:04.551Z,54.50
2018-02-08T06:57:08.996Z,60.13
2018-02-08T07:02:13.273Z,59.00
2018-02-08T07:07:16.764Z,48.90
2018-02-08T07:12:22.038Z,50.03
2018-02-08T07:17:26.476Z,51.30
2018-02-08T07:22:29.964Z,52.67
2018-02-08T07:27:33.064Z,49.27
2018-02-08T07:32:36.176Z,52.67
2018-02-08T07:37:39.316Z,48.90
2018-02-08T07:42:42.434Z,55.10
2018-02-08T07:47:45.600Z,51.53
2018-02-08T07:52:50.071Z,45.03
2018-02-08T07:57:53.598Z,44.70
2018-02-08T08:02:56.695Z,39.80
2018-02-08T08:07:59.849Z,45.75
2018-02-08T08:13:03.709Z,64.77
2018-02-08T08:18:07.980Z,59.40
2018-02-08T08:23:12.440Z,49.70
2018-02-08T08:28:15.554Z,44.17
2018-02-08T08:33:20.343Z,37.03
2018-02-08T08:38:25.295Z,39.20
2018-02-08T08:43:29.179Z,36.83
2018-02-08T08:48:32.595Z,36.10
2018-02-08T08:53:36.461Z,34.73
2018-02-08T08:58:41.311Z,38.53
2018-02-08T09:03:45.799Z,39.17
2018-02-08T09:08:49.644Z,34.53
2018-02-08T09:13:52.764Z,40.57
2018-02-08T09:18:55.863Z,38.47
2018-02-08T09:23:59.416Z,41.67
2018-02-08T09:29:03.271Z,42.13
2018-02-08T09:34:06.403Z,42.07
2018-02-08T09:39:09.504Z,40.53
2018-02-08T09:44:13.356Z,48.47
2018-02-08T09:49:17.816Z,47.57
2018-02-08T09:54:21.709Z,42.13
2018-02-08T09:59:25.708Z,42.83
2018-02-08T10:04:28.835Z,48.17
2018-02-08T10:09:32.316Z,43.13
2018-02-08T10:14:35.395Z,42.97
2018-02-08T10:19:39.257Z,48.70
2018-02-08T10:24:43.736Z,42.80
2018-02-08T10:29:47.224Z,45.57
2018-02-08T10:34:50.667Z,43.70
2018-02-08T10:39:55.108Z,47.63
2018-02-08T10:44:59.331Z,48.93
2018-02-08T10:50:02.464Z,49.73
2018-02-08T10:55:06.275Z,48.27
2018-02-08T11:00:09.404Z,50.23
2018-02-08T11:05:13.860Z,51.57
2018-02-08T11:10:18.328Z,54.60
2018-02-08T11:15:22.184Z,54.03
2018-02-08T11:20:26.084Z,52.37
2018-02-08T11:25:29.180Z,52.93
2018-02-08T11:30:33.447Z,52.37
2018-02-08T11:35:36.551Z,51.47
2018-02-08T11:40:39.671Z,52.00
2018-02-08T11:45:42.756Z,52.80
2018-02-08T11:50:47.191Z,51.60
2018-02-08T11:55:51.662Z,52.97
2018-02-08T12:00:55.144Z,55.53
2018-02-08T12:05:58.285Z,53.73
2018-02-08T12:11:01.382Z,60.50
2018-02-08T12:16:06.015Z,68.27
2018-02-08T12:21:10.456Z,56.70
2018-02-08T12:26:14.940Z,57.90
2018-02-08T12:31:19.383Z,56.00
2018-02-08T12:36:24.011Z,58.93
2018-02-08T12:41:27.856Z,62.20
2018-02-08T12:46:32.084Z,53.00
2018-02-08T12:51:35.972Z,60.97
2018-02-08T12:56:39.097Z,59.42
2018-02-08T13:01:43.544Z,54.07
2018-02-08T13:06:47.428Z,53.10
2018-02-08T13:11:51.726Z,57.77
2018-02-08T13:16:57.075Z,57.65
2018-02-08T13:22:00.597Z,59.57
2018-02-08T13:27:05.035Z,59.63
2018-02-08T13:32:08.994Z,54.73
2018-02-08T13:37:13.399Z,51.67
2018-02-08T13:42:19.807Z,54.83
2018-02-08T13:53:07.488Z,52.77
2018-02-08T14:03:56.292Z,59.47
2018-02-08T14:09:00.524Z,45.90
2018-02-08T14:14:04.959Z,49.13
2018-02-08T14:19:09.394Z,52.30
2018-02-08T14:24:12.873Z,61.27
2018-02-08T14:29:15.955Z,61.70
2018-02-08T14:34:19.245Z,54.63
2018-02-08T14:39:23.139Z,61.30
2018-02-08T14:44:26.212Z,58.43
2018-02-08T14:49:30.104Z,59.47
2018-02-08T14:54:34.542Z,56.17
2018-02-08T14:59:38.392Z,55.73
2018-02-08T15:04:42.228Z,53.67
2018-02-08T15:09:46.812Z,49.40
2018-02-08T15:14:50.304Z,47.85
2018-02-08T15:19:53.380Z,48.20
2018-02-08T15:24:57.811Z,53.10
2018-02-08T15:30:02.252Z,52.17
2018-02-08T15:35:06.675Z,57.23
2018-02-08T15:40:09.760Z,55.73
2018-02-08T15:45:14.199Z,60.25
2018-02-08T15:50:18.655Z,53.53
2018-02-08T15:55:22.504Z,48.50
2018-02-08T16:00:25.584Z,52.00
2018-02-08T16:05:30.668Z,49.60
2018-02-08T16:10:33.778Z,49.50
2018-02-08T16:15:38.207Z,51.60
2018-02-08T16:20:42.067Z,61.33
2018-02-08T16:25:46.560Z,60.83
2018-02-08T16:30:50.983Z,59.40
2018-02-08T16:35:54.457Z,58.63
2018-02-08T16:40:57.541Z,60.47
2018-02-08T16:46:01.400Z,60.33
2018-02-08T16:51:05.631Z,58.07
2018-02-08T16:56:09.492Z,63.90
2018-02-08T17:01:12.579Z,59.23
2018-02-08T17:06:17.019Z,58.80
2018-02-08T17:11:21.484Z,66.57
2018-02-08T17:16:24.959Z,65.43
2018-02-08T17:21:29.433Z,65.20
2018-02-08T17:26:33.832Z,62.03
2018-02-08T17:31:38.054Z,61.33
2018-02-08T17:36:41.136Z,62.07
2018-02-08T17:41:44.224Z,57.63
2018-02-08T17:46:47.712Z,66.63
2018-02-08T17:51:52.277Z,66.13
2018-02-08T17:56:56.556Z,60.07
2018-02-08T18:02:01.004Z,50.33
2018-02-08T18:07:04.857Z,65.80
2018-02-08T18:12:09.093Z,65.77
2018-02-08T18:17:13.523Z,71.90
2018-02-08T18:22:18.114Z,67.63
2018-02-08T18:27:21.205Z,72.50
2018-02-08T18:32:24.291Z,69.27
2018-02-08T18:37:28.752Z,73.57
2018-02-08T18:42:33.030Z,73.70
2018-02-08T18:47:36.064Z,71.10
2018-02-08T18:52:40.655Z,71.30
2018-02-08T18:57:45.599Z,70.07
2018-02-08T19:02:49.090Z,68.23
2018-02-08T19:07:52.186Z,68.05
2018-02-08T19:12:56.403Z,71.37
2018-02-08T19:17:59.900Z,66.53
2018-02-08T19:23:04.165Z,69.37
2018-02-08T19:28:07.680Z,77.27
2018-02-08T19:33:12.226Z,71.70
2018-02-08T19:38:15.735Z,76.93
2018-02-08T19:43:19.959Z,72.97
2018-02-08T19:48:23.821Z,75.70
2018-02-08T19:53:26.908Z,78.67
2018-02-08T19:58:32.828Z,76.40
2018-02-08T20:03:36.357Z,81.03
2018-02-08T20:08:40.568Z,76.67
2018-02-08T20:13:44.420Z,76.73
2018-02-08T20:18:48.640Z,72.07
2018-02-08T20:23:51.739Z,70.50
2018-02-08T20:28:54.844Z,72.20
2018-02-08T20:33:58.706Z,73.28
2018-02-08T20:39:03.140Z,73.47
2018-02-08T20:44:06.999Z,80.03
2018-02-08T20:49:12.334Z,73.50
2018-02-08T20:54:16.801Z,66.07
2018-02-08T20:59:20.288Z,78.97
2018-02-08T21:04:24.732Z,71.53
2018-02-08T21:09:29.327Z,82.23
2018-02-08T21:14:32.436Z,81.93
2018-02-08T21:19:35.713Z,76.70
2018-02-08T21:24:39.790Z,76.97
2018-02-08T21:29:44.417Z,81.93
2018-02-08T21:34:47.500Z,81.47
2018-02-08T21:39:51.936Z,78.47
2018-02-08T21:44:55.456Z,78.97
2018-02-08T21:49:59.303Z,88.63
2018-02-08T21:55:02.392Z,80.50
2018-02-08T22:00:05.497Z,81.10
2018-02-08T22:05:08.992Z,75.70
2018-02-08T22:10:12.072Z,78.95
2018-02-08T22:15:16.516Z,84.50
2018-02-08T22:20:19.998Z,78.83
2018-02-08T22:25:24.451Z,80.72
2018-02-08T22:30:27.532Z,81.33
2018-02-08T22:35:32.141Z,76.77
2018-02-08T22:40:35.227Z,74.07
2018-02-08T22:45:38.389Z,82.63
2018-02-08T22:50:42.980Z,82.40
2018-02-08T22:55:46.116Z,82.90
2018-02-08T23:00:50.545Z,78.32
2018-02-08T23:05:55.028Z,86.67
2018-02-08T23:10:58.132Z,88.85
2018-02-08T23:16:02.609Z,87.70
2018-02-08T23:21:05.700Z,83.60
2018-02-08T23:26:10.171Z,85.13
2018-02-08T23:31:14.028Z,89.63
2018-02-08T23:36:17.555Z,92.53
2018-02-08T23:41:21.048Z,95.90
2018-02-08T23:46:25.319Z,92.12
2018-02-08T23:51:29.176Z,94.10
2018-02-08T23:56:32.308Z,88.47
